Bow Flora — LAEX5 — position and weather

sailwx.info

Track history (hours):
 
Tides and Currents Weather Stations Pressure Air Temp Water Temp Dewpoint Dewpoint Depression Visibility Wind Speed Wind Dir Waves Ship Positions

Bow Flora

Last reported at 2018-Feb-22 05:18 UTC. Time now 2018-Feb-23 12:36 UTC.
Position N 34°38' E 130°11'.

Length 183 m; draft 10.2 m.

Type: Ship (hazmat cat B). MMSI: 259927000.

Date/timePositionNaut miles runAvg speedWind from/ knotsBaromVisibWave heightAir tempDewpointWater temp
2018-Feb-22 05:18N 34°38' E 130°11'413.4
2018-Feb-22 05:00N 34°35' E 130°14'713.3
2018-Feb-22 04:30N 34°30' E 130°19'713.1
2018-Feb-22 04:01N 34°25' E 130°25'713.2
2018-Feb-22 03:30N 34°21' E 130°31'713.4
2018-Feb-22 03:00N 34°16' E 130°36'713.4
2018-Feb-22 02:30N 34°10' E 130°40'713.4
2018-Feb-22 02:00N 34°05' E 130°45'713.8
2018-Feb-22 01:30N 34°01' E 130°52'4 8.7
2018-Feb-22 01:00N 33°56' E 130°52'3 6.3
2018-Feb-22 00:30N 33°56' E 130°56'4 7.5
2018-Feb-21 23:59N 33°59' E 130°60'4 7.9
2018-Feb-21 23:30N 33°57' E 131°04'5 9.8
2018-Feb-21 23:00N 33°54' E 131°08'510.3
2018-Feb-21 22:30N 33°51' E 131°14'612.1
2018-Feb-21 22:00N 33°50' E 131°21'713.9
2018-Feb-21 21:30N 33°49' E 131°29'714.7
2018-Feb-21 21:00N 33°47' E 131°38'713.8
2018-Feb-21 20:30N 33°45' E 131°45'714.1
2018-Feb-21 20:00N 33°38' E 131°49'713.7
2018-Feb-21 19:30N 33°32' E 131°53'713.7
2018-Feb-21 19:00N 33°26' E 131°56'713.1
2018-Feb-21 18:30N 33°20' E 131°59'710.1
2018-Feb-21 17:46N 33°12' E 131°59'32711.6
2018-Feb-20 13:30N 34°02' E 138°27'611.9
2018-Feb-20 13:00N 34°05' E 138°34'711.3
2018-Feb-20 12:23N 34°12' E 138°34'3 9.4
2018-Feb-20 12:01N 34°15' E 138°34'710.4
2018-Feb-20 11:22N 34°18' E 138°41'410.8
2018-Feb-20 10:59N 34°20' E 138°45'1011.6
2018-Feb-20 10:08N 34°25' E 138°56'211.8
2018-Feb-20 10:00N 34°25' E 138°58'611.7
2018-Feb-20 09:30N 34°28' E 139°04'612.2
2018-Feb-20 09:01N 34°34' E 139°06'713.0
2018-Feb-20 08:29N 34°41' E 139°05'714.1
2018-Feb-20 08:00N 34°46' E 139°10'713.1
2018-Feb-20 07:27N 34°52' E 139°16'613.4
2018-Feb-20 06:59N 34°55' E 139°22'613.4
2018-Feb-20 06:30N 34°58' E 139°29'714.4
2018-Feb-20 06:00N 35°02' E 139°37'714.2
2018-Feb-20 05:30N 35°06' E 139°43'713.4
2018-Feb-20 05:00N 35°13' E 139°46'612.3
2018-Feb-20 04:30N 35°18' E 139°43'612.4
2018-Feb-20 04:00N 35°25' E 139°43'3 5.8
2018-Feb-20 03:28N 35°27' E 139°45'0 0.0
2018-Feb-20 02:58N 35°27' E 139°45'0 0.0
2018-Feb-20 02:28N 35°27' E 139°45'0 0.0
2018-Feb-20 01:58N 35°27' E 139°45'0 0.1
2018-Feb-20 01:28N 35°27' E 139°45'0 0.0
2018-Feb-20 00:58N 35°27' E 139°45'0 0.0
2018-Feb-20 00:28N 35°27' E 139°45'0 0.0
2018-Feb-19 23:55N 35°27' E 139°45'0 0.0
2018-Feb-19 23:28N 35°27' E 139°45'0 0.0
2018-Feb-19 22:58N 35°27' E 139°45'0 0.1
2018-Feb-19 22:25N 35°27' E 139°45'0 0.0
2018-Feb-19 21:58N 35°27' E 139°45'0 0.1
2018-Feb-19 21:28N 35°27' E 139°45'0 0.0
2018-Feb-19 20:58N 35°27' E 139°45'0 0.1
2018-Feb-19 20:28N 35°27' E 139°45'0 0.0
2018-Feb-19 19:55N 35°27' E 139°45'0 0.0
2018-Feb-19 19:28N 35°27' E 139°45'0 0.0
2018-Feb-19 18:58N 35°27' E 139°45'0 0.0
2018-Feb-19 18:28N 35°27' E 139°45'0 0.1
2018-Feb-19 17:58N 35°27' E 139°45'0 0.1
2018-Feb-19 17:28N 35°27' E 139°45'0 0.0
2018-Feb-19 16:58N 35°27' E 139°45'0 0.1
2018-Feb-19 16:28N 35°27' E 139°45'0 0.0
2018-Feb-19 15:58N 35°27' E 139°45'0 0.0
2018-Feb-19 15:28N 35°27' E 139°45'0 0.0
2018-Feb-19 14:58N 35°27' E 139°45'0 0.1
2018-Feb-19 14:28N 35°27' E 139°45'0 0.0
2018-Feb-19 13:58N 35°27' E 139°45'0 0.0
2018-Feb-19 13:28N 35°27' E 139°45'0 0.1
2018-Feb-19 12:58N 35°27' E 139°45'0 0.1
2018-Feb-19 12:28N 35°27' E 139°45'0 0.2
2018-Feb-19 12:00N 35°27' E 139°45'2 4.5
2018-Feb-19 11:30N 35°25' E 139°46'511.1
2018-Feb-19 11:00N 35°20' E 139°44'611.1
2018-Feb-19 10:30N 35°15' E 139°47'510.6
2018-Feb-19 10:01N 35°10' E 139°46'510.6
2018-Feb-19 09:30N 35°05' E 139°43'610.4
2018-Feb-19 08:54N 34°59' E 139°41'511.4
2018-Feb-19 08:30N 34°54' E 139°42'812.6
2018-Feb-19 07:53N 34°48' E 139°48'  
Track history (hours):
 
Tides and Currents Weather Stations Pressure Air Temp Water Temp Dewpoint Dewpoint Depression Visibility Wind Speed Wind Dir Waves Ship Positions

Bow Flora

Last reported at 2018-Feb-22 05:18 UTC. Time now 2018-Feb-23 12:36 UTC.
Position N 34°38' E 130°11'.

Length 183 m; draft 10.2 m.

Type: Ship (hazmat cat B). MMSI: 259927000.

Date/timePositionNaut miles runAvg speedWind from/ knotsBaromVisibWave heightAir tempDewpointWater temp
2018-Feb-22 05:18N 34°38' E 130°11'413.4
2018-Feb-22 05:00N 34°35' E 130°14'713.3
2018-Feb-22 04:30N 34°30' E 130°19'713.1
2018-Feb-22 04:01N 34°25' E 130°25'713.2
2018-Feb-22 03:30N 34°21' E 130°31'713.4
2018-Feb-22 03:00N 34°16' E 130°36'713.4
2018-Feb-22 02:30N 34°10' E 130°40'713.4
2018-Feb-22 02:00N 34°05' E 130°45'713.8
2018-Feb-22 01:30N 34°01' E 130°52'4 8.7
2018-Feb-22 01:00N 33°56' E 130°52'3 6.3
2018-Feb-22 00:30N 33°56' E 130°56'4 7.5
2018-Feb-21 23:59N 33°59' E 130°60'4 7.9
2018-Feb-21 23:30N 33°57' E 131°04'5 9.8
2018-Feb-21 23:00N 33°54' E 131°08'510.3
2018-Feb-21 22:30N 33°51' E 131°14'612.1
2018-Feb-21 22:00N 33°50' E 131°21'713.9
2018-Feb-21 21:30N 33°49' E 131°29'714.7
2018-Feb-21 21:00N 33°47' E 131°38'713.8
2018-Feb-21 20:30N 33°45' E 131°45'714.1
2018-Feb-21 20:00N 33°38' E 131°49'713.7
2018-Feb-21 19:30N 33°32' E 131°53'713.7
2018-Feb-21 19:00N 33°26' E 131°56'713.1
2018-Feb-21 18:30N 33°20' E 131°59'710.1
2018-Feb-21 17:46N 33°12' E 131°59'32711.6
2018-Feb-20 13:30N 34°02' E 138°27'611.9
2018-Feb-20 13:00N 34°05' E 138°34'711.3
2018-Feb-20 12:23N 34°12' E 138°34'3 9.4
2018-Feb-20 12:01N 34°15' E 138°34'710.4
2018-Feb-20 11:22N 34°18' E 138°41'410.8
2018-Feb-20 10:59N 34°20' E 138°45'1011.6
2018-Feb-20 10:08N 34°25' E 138°56'211.8
2018-Feb-20 10:00N 34°25' E 138°58'611.7
2018-Feb-20 09:30N 34°28' E 139°04'612.2
2018-Feb-20 09:01N 34°34' E 139°06'713.0
2018-Feb-20 08:29N 34°41' E 139°05'714.1
2018-Feb-20 08:00N 34°46' E 139°10'713.1
2018-Feb-20 07:27N 34°52' E 139°16'613.4
2018-Feb-20 06:59N 34°55' E 139°22'613.4
2018-Feb-20 06:30N 34°58' E 139°29'714.4
2018-Feb-20 06:00N 35°02' E 139°37'714.2
2018-Feb-20 05:30N 35°06' E 139°43'713.4
2018-Feb-20 05:00N 35°13' E 139°46'612.3
2018-Feb-20 04:30N 35°18' E 139°43'612.4
2018-Feb-20 04:00N 35°25' E 139°43'3 5.8
2018-Feb-20 03:28N 35°27' E 139°45'0 0.0
2018-Feb-20 02:58N 35°27' E 139°45'0 0.0
2018-Feb-20 02:28N 35°27' E 139°45'0 0.0
2018-Feb-20 01:58N 35°27' E 139°45'0 0.1
2018-Feb-20 01:28N 35°27' E 139°45'0 0.0
2018-Feb-20 00:58N 35°27' E 139°45'0 0.0
2018-Feb-20 00:28N 35°27' E 139°45'0 0.0
2018-Feb-19 23:55N 35°27' E 139°45'0 0.0
2018-Feb-19 23:28N 35°27' E 139°45'0 0.0
2018-Feb-19 22:58N 35°27' E 139°45'0 0.1
2018-Feb-19 22:25N 35°27' E 139°45'0 0.0
2018-Feb-19 21:58N 35°27' E 139°45'0 0.1
2018-Feb-19 21:28N 35°27' E 139°45'0 0.0
2018-Feb-19 20:58N 35°27' E 139°45'0 0.1
2018-Feb-19 20:28N 35°27' E 139°45'0 0.0
2018-Feb-19 19:55N 35°27' E 139°45'0 0.0
2018-Feb-19 19:28N 35°27' E 139°45'0 0.0
2018-Feb-19 18:58N 35°27' E 139°45'0 0.0
2018-Feb-19 18:28N 35°27' E 139°45'0 0.1
2018-Feb-19 17:58N 35°27' E 139°45'0 0.1
2018-Feb-19 17:28N 35°27' E 139°45'0 0.0
2018-Feb-19 16:58N 35°27' E 139°45'0 0.1
2018-Feb-19 16:28N 35°27' E 139°45'0 0.0
2018-Feb-19 15:58N 35°27' E 139°45'0 0.0
2018-Feb-19 15:28N 35°27' E 139°45'0 0.0
2018-Feb-19 14:58N 35°27' E 139°45'0 0.1
2018-Feb-19 14:28N 35°27' E 139°45'0 0.0
2018-Feb-19 13:58N 35°27' E 139°45'0 0.0
2018-Feb-19 13:28N 35°27' E 139°45'0 0.1
2018-Feb-19 12:58N 35°27' E 139°45'0 0.1
2018-Feb-19 12:28N 35°27' E 139°45'0 0.2
2018-Feb-19 12:00N 35°27' E 139°45'2 4.5
2018-Feb-19 11:30N 35°25' E 139°46'511.1
2018-Feb-19 11:00N 35°20' E 139°44'611.1
2018-Feb-19 10:30N 35°15' E 139°47'510.6
2018-Feb-19 10:01N 35°10' E 139°46'510.6
2018-Feb-19 09:30N 35°05' E 139°43'610.4
2018-Feb-19 08:54N 34°59' E 139°41'511.4
2018-Feb-19 08:30N 34°54' E 139°42'812.6
2018-Feb-19 07:53N 34°48' E 139°48'  

Dump ship's entire track history